createdAt,value
2019-05-17T00:01:47.859Z,11.80
2019-05-17T00:04:22.491Z,11.80
2019-05-17T00:06:57.060Z,11.80
2019-05-17T00:09:30.900Z,11.80
2019-05-17T00:12:07.282Z,11.80
2019-05-17T00:14:40.205Z,11.70
2019-05-17T00:17:13.779Z,11.70
2019-05-17T00:19:47.485Z,11.70
2019-05-17T00:22:21.100Z,11.80
2019-05-17T00:24:56.675Z,11.80
2019-05-17T00:27:30.009Z,11.80
2019-05-17T00:30:06.594Z,11.80
2019-05-17T00:32:40.133Z,11.90
2019-05-17T00:35:14.115Z,11.90
2019-05-17T00:37:47.777Z,11.90
2019-05-17T00:40:22.056Z,12.00
2019-05-17T00:46:32.695Z,12.00
2019-05-17T00:49:06.629Z,12.00
2019-05-17T00:51:40.447Z,12.10
2019-05-17T00:54:14.119Z,12.10
2019-05-17T00:56:47.815Z,12.10
2019-05-17T01:03:07.633Z,12.10
2019-05-17T01:05:41.225Z,12.10
2019-05-17T01:08:17.293Z,12.10
2019-05-17T01:10:50.791Z,12.10
2019-05-17T01:13:26.564Z,12.10
2019-05-17T01:15:59.874Z,12.10
2019-05-17T01:18:33.564Z,12.10
2019-05-17T01:21:07.835Z,12.10
2019-05-17T01:23:41.443Z,12.10
2019-05-17T01:26:15.417Z,12.10
2019-05-17T01:28:49.011Z,12.10
2019-05-17T01:31:23.054Z,12.10
2019-05-17T01:33:56.687Z,12.10
2019-05-17T01:36:30.348Z,12.10
2019-05-17T01:39:15.182Z,12.10
2019-05-17T01:41:39.489Z,12.10
2019-05-17T01:44:13.095Z,12.00
2019-05-17T01:46:46.799Z,12.00
2019-05-17T01:49:20.541Z,12.00
2019-05-17T01:51:56.656Z,12.00
2019-05-17T01:54:29.587Z,12.00
2019-05-17T01:57:03.395Z,12.00
2019-05-17T01:59:37.375Z,12.00
2019-05-17T02:02:29.089Z,12.10
2019-05-17T02:05:03.072Z,12.10
2019-05-17T02:07:37.371Z,12.10
2019-05-17T02:10:12.956Z,12.10
2019-05-17T02:12:49.110Z,12.10
2019-05-17T02:15:22.591Z,12.20
2019-05-17T02:17:57.379Z,12.20
2019-05-17T02:20:31.164Z,12.20
2019-05-17T02:23:07.017Z,12.20
2019-05-17T02:25:40.169Z,12.20
2019-05-17T02:32:03.521Z,12.20
2019-05-17T02:34:35.166Z,12.20
2019-05-17T02:37:08.780Z,12.20
2019-05-17T02:39:53.825Z,12.20
2019-05-17T02:42:17.820Z,12.20
2019-05-17T02:48:37.618Z,12.30
2019-05-17T02:51:13.046Z,12.30
2019-05-17T02:53:46.635Z,12.30
2019-05-17T02:56:22.842Z,12.30
2019-05-17T02:58:55.557Z,12.30
2019-05-17T03:01:32.823Z,12.30
2019-05-17T03:04:05.267Z,12.30
2019-05-17T03:06:38.973Z,12.30
2019-05-17T03:09:12.666Z,12.30
2019-05-17T03:11:46.343Z,12.30
2019-05-17T03:14:22.786Z,12.30
2019-05-17T03:16:55.217Z,12.30
2019-05-17T03:19:32.541Z,12.30
2019-05-17T03:22:07.761Z,12.30
2019-05-17T03:24:39.942Z,12.30
2019-05-17T03:27:13.822Z,12.30
2019-05-17T03:29:47.787Z,12.30
2019-05-17T03:32:26.353Z,12.30
2019-05-17T03:34:57.251Z,12.30
2019-05-17T03:37:37.292Z,12.30
2019-05-17T03:40:23.297Z,12.30
2019-05-17T03:42:43.003Z,12.30
2019-05-17T03:45:17.170Z,12.30
2019-05-17T03:47:53.211Z,12.40
2019-05-17T03:50:26.138Z,12.30
2019-05-17T03:53:02.375Z,12.30
2019-05-17T03:55:35.309Z,12.30
2019-05-17T03:58:08.969Z,12.30
2019-05-17T04:00:43.001Z,12.30
2019-05-17T04:03:16.769Z,12.30
2019-05-17T04:05:52.858Z,12.30
2019-05-17T04:08:25.806Z,12.20
2019-05-17T04:11:17.614Z,12.20
2019-05-17T04:17:22.752Z,12.20
2019-05-17T04:19:56.851Z,12.20
2019-05-17T04:22:33.108Z,12.20
2019-05-17T04:25:06.638Z,12.20
2019-05-17T04:27:43.654Z,12.20
2019-05-17T04:34:03.091Z,12.20
2019-05-17T04:36:37.001Z,12.20
2019-05-17T04:39:13.315Z,12.20
2019-05-17T04:41:50.363Z,12.30
2019-05-17T04:44:23.082Z,12.20
2019-05-17T04:46:57.129Z,12.20
2019-05-17T04:49:33.041Z,12.20
2019-05-17T04:52:06.418Z,12.20
2019-05-17T04:54:42.465Z,12.20
2019-05-17T04:57:15.457Z,12.20
2019-05-17T04:59:52.352Z,12.20
2019-05-17T05:02:25.422Z,12.20
2019-05-17T05:05:02.894Z,12.20
2019-05-17T05:07:34.650Z,12.20
2019-05-17T05:10:09.540Z,12.20
2019-05-17T05:12:44.498Z,12.20
2019-05-17T05:15:22.534Z,12.20
2019-05-17T05:17:56.373Z,12.20
2019-05-17T05:20:32.431Z,12.10
2019-05-17T05:23:05.524Z,12.10
2019-05-17T05:25:39.125Z,12.10
2019-05-17T05:28:12.854Z,12.10
2019-05-17T05:30:46.514Z,12.10
2019-05-17T05:33:22.169Z,12.10
2019-05-17T05:35:55.373Z,12.10
2019-05-17T05:38:28.970Z,12.10
2019-05-17T05:41:02.742Z,12.00
2019-05-17T05:47:12.906Z,12.00
2019-05-17T05:49:46.499Z,12.00
2019-05-17T05:52:21.884Z,12.00
2019-05-17T05:54:55.594Z,12.00
2019-05-17T05:57:29.256Z,12.00
2019-05-17T06:03:49.400Z,12.00
2019-05-17T06:06:23.038Z,12.00
2019-05-17T06:08:56.872Z,12.00
2019-05-17T06:11:32.225Z,12.00
2019-05-17T06:14:06.203Z,12.00
2019-05-17T06:16:42.548Z,12.00
2019-05-17T06:19:15.820Z,12.00
2019-05-17T06:21:51.849Z,12.00
2019-05-17T06:24:24.744Z,12.10
2019-05-17T06:26:58.416Z,12.10
2019-05-17T06:29:32.778Z,12.00
2019-05-17T06:32:06.784Z,12.10
2019-05-17T06:34:42.248Z,12.00
2019-05-17T06:37:16.687Z,12.10
2019-05-17T06:39:52.508Z,12.10
2019-05-17T06:42:37.229Z,12.10
2019-05-17T06:45:02.205Z,12.10
2019-05-17T06:47:36.056Z,12.10
2019-05-17T06:50:10.098Z,12.10
2019-05-17T06:52:44.180Z,12.10
2019-05-17T06:55:17.937Z,12.10
2019-05-17T06:57:52.802Z,12.10
2019-05-17T07:00:29.793Z,12.10
2019-05-17T07:03:03.128Z,12.10
2019-05-17T07:05:40.401Z,12.10
2019-05-17T07:08:13.780Z,12.10
2019-05-17T07:10:47.419Z,12.10
2019-05-17T07:13:21.017Z,12.10
2019-05-17T07:15:54.706Z,12.10
2019-05-17T07:18:30.002Z,12.10
2019-05-17T07:21:03.843Z,12.10
2019-05-17T07:23:39.523Z,12.10
2019-05-17T07:26:13.098Z,12.00
2019-05-17T07:28:46.844Z,12.00
2019-05-17T07:31:23.105Z,12.00
2019-05-17T07:33:55.866Z,12.00
2019-05-17T07:36:30.653Z,12.00
2019-05-17T07:39:05.594Z,11.90
2019-05-17T07:41:40.131Z,12.00
2019-05-17T07:47:51.487Z,12.00
2019-05-17T07:50:25.259Z,12.00
2019-05-17T07:53:00.611Z,12.00
2019-05-17T07:55:34.351Z,12.00
2019-05-17T07:58:10.055Z,12.00
2019-05-17T08:04:30.462Z,12.10
2019-05-17T08:07:04.231Z,12.10
2019-05-17T08:09:40.272Z,12.10
2019-05-17T08:12:13.478Z,12.10
2019-05-17T08:14:50.293Z,12.20
2019-05-17T08:17:24.111Z,12.20
2019-05-17T08:20:00.312Z,12.20
2019-05-17T08:22:33.134Z,12.30
2019-05-17T08:25:07.148Z,12.30
2019-05-17T08:27:40.859Z,12.30
2019-05-17T08:30:15.029Z,12.30
2019-05-17T08:32:50.450Z,12.40
2019-05-17T08:35:23.932Z,12.40
2019-05-17T08:38:00.340Z,12.40
2019-05-17T08:40:33.364Z,12.40
2019-05-17T08:43:09.727Z,12.40
2019-05-17T08:45:42.364Z,12.40
2019-05-17T08:48:15.996Z,12.40
2019-05-17T08:50:49.700Z,12.40
2019-05-17T08:53:23.512Z,12.40
2019-05-17T08:55:57.175Z,12.50
2019-05-17T08:58:31.165Z,12.50
2019-05-17T09:01:04.895Z,12.50
2019-05-17T09:03:41.033Z,12.60
2019-05-17T09:06:14.802Z,12.60
2019-05-17T09:08:49.960Z,12.60
2019-05-17T09:11:23.699Z,12.60
2019-05-17T09:14:01.122Z,12.70
2019-05-17T09:16:34.108Z,12.70
2019-05-17T09:19:10.078Z,12.70
2019-05-17T09:21:43.804Z,12.70
2019-05-17T09:24:19.485Z,12.70
2019-05-17T09:26:52.868Z,12.70
2019-05-17T09:33:13.176Z,12.80
2019-05-17T09:35:46.829Z,12.80
2019-05-17T09:38:20.528Z,12.90
2019-05-17T09:40:54.131Z,13.00
2019-05-17T09:43:29.536Z,12.90
2019-05-17T09:49:50.144Z,13.00
2019-05-17T09:52:24.175Z,13.10
2019-05-17T09:55:00.436Z,13.10
2019-05-17T09:57:33.530Z,13.20
2019-05-17T10:00:09.909Z,13.30
2019-05-17T10:02:43.828Z,13.30
2019-05-17T10:05:19.969Z,13.30
2019-05-17T10:07:52.787Z,13.40
2019-05-17T10:10:26.464Z,13.50
2019-05-17T10:13:00.307Z,13.60
2019-05-17T10:15:34.357Z,13.60
2019-05-17T10:18:10.766Z,13.80
2019-05-17T10:20:43.409Z,13.80
2019-05-17T10:23:19.510Z,13.90
2019-05-17T10:25:52.459Z,13.90
2019-05-17T10:28:26.361Z,13.90
2019-05-17T10:31:02.425Z,13.80
2019-05-17T10:33:35.398Z,13.90
2019-05-17T10:36:09.954Z,13.90
2019-05-17T10:38:43.896Z,13.90
2019-05-17T10:41:19.725Z,14.00
2019-05-17T10:43:52.850Z,13.90
2019-05-17T10:46:26.507Z,14.00
2019-05-17T10:49:00.156Z,14.00
2019-05-17T10:51:34.105Z,14.10
2019-05-17T10:54:09.566Z,14.10
2019-05-17T10:56:43.351Z,14.00
2019-05-17T10:59:17.090Z,14.10
2019-05-17T11:01:50.857Z,13.90
2019-05-17T11:04:24.873Z,13.90
2019-05-17T11:06:59.672Z,13.90
2019-05-17T11:09:33.408Z,13.80
2019-05-17T11:12:07.218Z,13.90
2019-05-17T11:18:18.406Z,13.80
2019-05-17T11:20:51.990Z,13.80
2019-05-17T11:23:25.682Z,13.90
2019-05-17T11:25:59.326Z,13.90
2019-05-17T11:28:32.911Z,13.90
2019-05-17T11:34:43.915Z,13.80
2019-05-17T11:37:17.496Z,13.80
2019-05-17T11:39:51.119Z,13.80
2019-05-17T11:42:24.829Z,13.80
2019-05-17T11:44:58.504Z,13.80
2019-05-17T11:47:32.212Z,14.00
2019-05-17T11:50:09.034Z,14.10
2019-05-17T11:52:42.679Z,14.10
2019-05-17T11:55:16.407Z,14.30
2019-05-17T11:57:50.025Z,14.40
2019-05-17T12:00:24.126Z,14.40
2019-05-17T12:02:57.851Z,14.50
2019-05-17T12:05:31.783Z,14.50
2019-05-17T12:08:08.532Z,14.60
2019-05-17T12:10:46.906Z,14.60
2019-05-17T12:13:21.639Z,14.70
2019-05-17T12:15:55.220Z,14.70
2019-05-17T12:18:28.866Z,14.70
2019-05-17T12:21:03.890Z,14.70
2019-05-17T12:23:37.641Z,14.70
2019-05-17T12:26:11.538Z,14.80
2019-05-17T12:28:45.190Z,15.10
2019-05-17T12:31:18.784Z,15.20
2019-05-17T12:33:52.381Z,15.40
2019-05-17T12:36:25.997Z,15.70
2019-05-17T12:39:02.612Z,15.70
2019-05-17T12:41:36.194Z,15.90
2019-05-17T12:44:09.865Z,16.00
2019-05-17T12:46:43.461Z,16.20
2019-05-17T12:49:18.067Z,16.10
2019-05-17T12:51:51.656Z,16.20
2019-05-17T12:54:25.670Z,16.40
2019-05-17T12:56:59.253Z,16.50
2019-05-17T12:59:32.954Z,16.60
2019-05-17T13:02:06.629Z,16.70
2019-05-17T13:04:40.340Z,16.90
2019-05-17T13:07:14.010Z,17.00
2019-05-17T13:09:49.311Z,17.00
2019-05-17T13:12:23.130Z,16.70
2019-05-17T13:18:34.366Z,16.70
2019-05-17T13:21:08.012Z,16.80
2019-05-17T13:23:41.714Z,16.70
2019-05-17T13:26:15.332Z,16.60
2019-05-17T13:28:48.966Z,16.80
2019-05-17T13:35:10.344Z,16.80
2019-05-17T13:37:44.088Z,17.00
2019-05-17T13:40:18.274Z,17.20
2019-05-17T13:42:52.631Z,17.40
2019-05-17T13:45:26.318Z,17.60
2019-05-17T13:47:59.922Z,17.70
2019-05-17T13:50:33.590Z,18.00
2019-05-17T13:53:07.360Z,18.00
2019-05-17T13:55:47.025Z,18.00
2019-05-17T13:58:20.739Z,17.90
2019-05-17T14:00:54.336Z,17.70
2019-05-17T14:03:28.120Z,17.40
2019-05-17T14:06:01.731Z,17.40
2019-05-17T14:08:35.359Z,17.30
2019-05-17T14:11:09.123Z,17.20
2019-05-17T14:13:42.779Z,17.00
2019-05-17T14:16:18.840Z,16.90
2019-05-17T14:18:52.505Z,16.90
2019-05-17T14:21:26.128Z,16.90
2019-05-17T14:23:59.781Z,17.10
2019-05-17T14:26:33.499Z,17.30
2019-05-17T14:29:07.170Z,17.20
2019-05-17T14:31:40.841Z,17.30
2019-05-17T14:34:14.430Z,17.30
2019-05-17T14:36:48.054Z,17.00
2019-05-17T14:39:21.718Z,17.00
2019-05-17T14:41:55.355Z,16.80
2019-05-17T14:44:30.852Z,16.80
2019-05-17T14:47:04.548Z,16.80
2019-05-17T14:49:38.160Z,16.50
2019-05-17T14:52:11.849Z,16.40
2019-05-17T14:54:45.462Z,16.30
2019-05-17T14:57:19.051Z,16.30
2019-05-17T14:59:52.895Z,16.30
2019-05-17T15:02:26.621Z,16.30
2019-05-17T15:05:00.451Z,16.30
2019-05-17T15:07:34.027Z,16.30
2019-05-17T15:10:08.112Z,16.10
2019-05-17T15:12:41.774Z,16.10
2019-05-17T15:18:43.051Z,15.90
2019-05-17T15:21:16.779Z,15.60
2019-05-17T15:23:50.398Z,15.50
2019-05-17T15:26:23.993Z,15.40
2019-05-17T15:28:57.626Z,15.20
2019-05-17T15:35:17.432Z,15.00
2019-05-17T15:37:51.031Z,14.90
2019-05-17T15:40:24.715Z,14.80
2019-05-17T15:42:58.305Z,14.70
2019-05-17T15:45:31.994Z,14.60
2019-05-17T15:48:05.659Z,14.60
2019-05-17T15:50:39.381Z,14.50
2019-05-17T15:53:13.034Z,14.40
2019-05-17T15:55:46.699Z,14.40
2019-05-17T15:58:20.308Z,14.40
2019-05-17T16:00:54.034Z,14.40
2019-05-17T16:03:27.742Z,14.40
2019-05-17T16:06:01.364Z,14.30
2019-05-17T16:08:35.048Z,14.30
2019-05-17T16:11:08.828Z,14.30
2019-05-17T16:13:42.762Z,14.30
2019-05-17T16:16:16.359Z,14.30
2019-05-17T16:18:50.101Z,14.30
2019-05-17T16:21:23.768Z,14.40
2019-05-17T16:23:57.519Z,14.40
2019-05-17T16:26:31.108Z,14.40
2019-05-17T16:29:04.741Z,14.40
2019-05-17T16:31:38.733Z,14.50
2019-05-17T16:34:12.366Z,14.50
2019-05-17T16:36:45.980Z,14.50
2019-05-17T16:39:19.626Z,14.50
2019-05-17T16:41:53.220Z,14.50
2019-05-17T16:44:26.914Z,14.50
2019-05-17T16:47:00.550Z,14.60
2019-05-17T16:49:34.273Z,14.60
2019-05-17T16:52:08.049Z,14.60
2019-05-17T16:54:41.647Z,14.60
2019-05-17T16:57:15.308Z,14.60
2019-05-17T16:59:49.940Z,14.60
2019-05-17T17:02:23.665Z,14.60
2019-05-17T17:04:57.317Z,14.60
2019-05-17T17:07:30.986Z,14.60
2019-05-17T17:10:05.933Z,14.60
2019-05-17T17:12:39.723Z,14.50
2019-05-17T17:15:13.627Z,14.60
2019-05-17T17:17:47.276Z,14.60
2019-05-17T17:20:22.647Z,14.60
2019-05-17T17:22:56.365Z,14.60
2019-05-17T17:25:30.055Z,14.60
2019-05-17T17:28:05.968Z,14.60
2019-05-17T17:30:39.148Z,14.60
2019-05-17T17:33:13.491Z,14.60
2019-05-17T17:35:47.088Z,14.50
2019-05-17T17:38:20.766Z,14.50
2019-05-17T17:40:54.589Z,14.50
2019-05-17T17:43:28.359Z,14.50
2019-05-17T17:49:39.341Z,14.40
2019-05-17T17:52:13.008Z,14.30
2019-05-17T17:54:46.861Z,14.40
2019-05-17T17:57:20.570Z,14.30
2019-05-17T17:59:55.733Z,14.30
2019-05-17T18:06:15.567Z,14.20
2019-05-17T18:08:49.282Z,14.20
2019-05-17T18:11:22.962Z,14.10
2019-05-17T18:14:11.117Z,14.00
2019-05-17T18:16:32.980Z,14.00
2019-05-17T18:19:06.882Z,14.00
2019-05-17T18:21:40.604Z,13.90
2019-05-17T18:24:14.206Z,13.90
2019-05-17T18:26:48.319Z,13.90
2019-05-17T18:29:21.997Z,13.90
2019-05-17T18:31:55.774Z,13.80
2019-05-17T18:34:29.381Z,13.70
2019-05-17T18:37:03.035Z,13.70
2019-05-17T18:39:36.655Z,13.60
2019-05-17T18:42:10.436Z,13.60
2019-05-17T18:44:44.176Z,13.60
2019-05-17T18:47:17.820Z,13.60
2019-05-17T18:49:51.473Z,13.60
2019-05-17T18:52:25.128Z,13.50
2019-05-17T18:54:58.739Z,13.50
2019-05-17T18:57:32.403Z,13.50
2019-05-17T19:00:08.607Z,13.40
2019-05-17T19:02:42.296Z,13.40
2019-05-17T19:05:16.641Z,13.30
2019-05-17T19:07:50.253Z,13.30
2019-05-17T19:10:24.144Z,13.20
2019-05-17T19:12:57.828Z,13.20
2019-05-17T19:15:31.537Z,13.10
2019-05-17T19:18:05.273Z,13.10
2019-05-17T19:20:38.997Z,13.00
2019-05-17T19:23:12.667Z,13.00
2019-05-17T19:25:46.306Z,12.90
2019-05-17T19:28:19.943Z,12.90
2019-05-17T19:30:53.556Z,12.90
2019-05-17T19:33:27.218Z,12.80
2019-05-17T19:36:00.886Z,12.80
2019-05-17T19:38:34.618Z,12.80
2019-05-17T19:41:08.326Z,12.80
2019-05-17T19:43:41.975Z,12.80
2019-05-17T19:49:53.335Z,12.80
2019-05-17T19:52:27.009Z,12.80
2019-05-17T19:55:00.768Z,12.80
2019-05-17T19:57:34.412Z,12.90
2019-05-17T20:00:10.437Z,12.90
2019-05-17T20:06:20.851Z,12.90
2019-05-17T20:08:54.456Z,13.00
2019-05-17T20:11:34.446Z,13.00
2019-05-17T20:14:03.707Z,13.00
2019-05-17T20:16:37.407Z,13.00
2019-05-17T20:19:11.043Z,13.00
2019-05-17T20:21:44.745Z,13.00
2019-05-17T20:24:18.355Z,13.00
2019-05-17T20:26:52.022Z,13.00
2019-05-17T20:29:25.656Z,13.00
2019-05-17T20:31:59.341Z,13.00
2019-05-17T20:34:32.923Z,13.00
2019-05-17T20:37:06.629Z,13.00
2019-05-17T20:39:40.430Z,12.90
2019-05-17T20:42:14.068Z,12.80
2019-05-17T20:44:47.663Z,12.80
2019-05-17T20:47:21.384Z,12.80
2019-05-17T20:49:55.085Z,12.80
2019-05-17T20:52:28.774Z,12.70
2019-05-17T20:55:04.072Z,12.70
2019-05-17T20:57:37.722Z,12.70
2019-05-17T21:00:13.385Z,12.70
2019-05-17T21:02:46.971Z,12.60
2019-05-17T21:05:20.589Z,12.60
2019-05-17T21:07:54.323Z,12.60
2019-05-17T21:10:27.933Z,12.60
2019-05-17T21:13:01.556Z,12.60
2019-05-17T21:15:46.965Z,12.50
2019-05-17T21:18:10.692Z,12.50
2019-05-17T21:20:44.348Z,12.40
2019-05-17T21:23:18.093Z,12.30
2019-05-17T21:25:51.725Z,12.30
2019-05-17T21:28:25.404Z,12.40
2019-05-17T21:30:58.991Z,12.40
2019-05-17T21:33:32.670Z,12.40
2019-05-17T21:36:06.602Z,12.40
2019-05-17T21:38:40.396Z,12.40
2019-05-17T21:41:14.034Z,12.40
2019-05-17T21:43:47.724Z,12.50
2019-05-17T21:46:21.343Z,12.50
2019-05-17T21:48:55.044Z,12.50
2019-05-17T21:51:28.686Z,12.50
2019-05-17T21:54:02.351Z,12.60
2019-05-17T21:56:36.016Z,12.60
2019-05-17T21:59:12.621Z,12.60
2019-05-17T22:05:22.218Z,12.60
2019-05-17T22:07:56.085Z,12.60
2019-05-17T22:10:29.796Z,12.60
2019-05-17T22:13:03.509Z,12.50
2019-05-17T22:15:37.175Z,12.50
2019-05-17T22:21:48.589Z,12.50
2019-05-17T22:24:22.184Z,12.40
2019-05-17T22:26:55.821Z,12.40
2019-05-17T22:29:29.423Z,12.40
2019-05-17T22:32:03.171Z,12.40
2019-05-17T22:34:36.799Z,12.50
2019-05-17T22:37:10.517Z,12.40
2019-05-17T22:39:44.133Z,12.50
2019-05-17T22:42:17.739Z,12.40
2019-05-17T22:44:51.339Z,12.50
2019-05-17T22:47:25.015Z,12.60
2019-05-17T22:50:00.152Z,12.60
2019-05-17T22:52:33.704Z,12.60
2019-05-17T22:55:07.630Z,12.60
2019-05-17T22:57:41.389Z,12.60
2019-05-17T23:00:15.715Z,12.60
2019-05-17T23:02:49.634Z,12.60
2019-05-17T23:05:26.195Z,12.70
2019-05-17T23:07:58.682Z,12.70
2019-05-17T23:10:35.099Z,12.80
2019-05-17T23:13:07.825Z,12.90
2019-05-17T23:16:01.144Z,13.00
2019-05-17T23:18:35.152Z,13.10
2019-05-17T23:21:08.761Z,13.10
2019-05-17T23:23:42.398Z,13.10
2019-05-17T23:26:15.996Z,13.20
2019-05-17T23:28:49.638Z,13.20
2019-05-17T23:31:23.310Z,13.30
2019-05-17T23:33:57.054Z,13.30
2019-05-17T23:36:30.649Z,13.30
2019-05-17T23:39:06.440Z,13.30
2019-05-17T23:41:40.095Z,13.30
2019-05-17T23:44:13.737Z,13.30
2019-05-17T23:46:47.381Z,13.30
2019-05-17T23:49:20.965Z,13.30
2019-05-17T23:51:54.554Z,13.30
2019-05-17T23:54:28.186Z,13.30
2019-05-17T23:57:01.863Z,13.30
2019-05-17T23:59:35.467Z,13.30
